首页
METAR-TAF:

METAR-TAF

机场 :

Lossiemouth, 苏格兰

纬度: 57-43N, 经度: 003-19W, 海拔: 13米

当前天气观测

该预报发布于22分钟前的05:50 UTC
风速9节,风向
温度 14°C
湿度 94%
气压 1002 hPa
能見度: 4000
少量云层高于800英尺
多云层高于7000英尺
多云层高于16000英尺
轻雾

METAR: EGQS 230550Z 09009KT 4000 BR FEW008 BKN070 BKN160 14/13 Q1002 RERA BECMG 9999 NSW RMK GRN BECMG BLU

时间: 07:12 (06:12 UTC)

预报

该预报发布于1小时和33分钟前的04:39 UTC
预报有效从23日的 06点(UTC)到 23日的 24点(UTC)
风速10节,风向
能见度10公里或以上
少量云层高于1000英尺
几率 30% :
短暂存在
从 23日的 06点(UTC)到 23日的 08点(UTC)
能見度: 4000
散云层高于800英尺
大雨

TAF: EGQS 230439Z 2306/2324 10010KT 9999 FEW010 PROB30 TEMPO 2306/2308 4000 +RA SCT008

超过4000个机场的气象观测和天气预报(METAR&TAF报告)。

可查询的气象台以黄色和红色小点在地图上表示。

将鼠标移到小点上方,可查看气象台名称。

然后点击查看天气观测和预报。

如需切换地图:点击带黑十字的绿色按钮放大地图;点击带横线的绿色按钮缩小地图;或者点击绿色箭头查看邻近地区的地图。


METAR-TAF: